KPTB/PTB METAR and TAF weather

Enter ICAO airport designator
Station Type Date Time Source
KPTB METAR 2021/10/20 05:55 UTC NOAA

KPTB 200555Z AUTO 24004KT 10SM CLR 09/06 A3016 RMK AO2 T00880064 10105 20069 TSNO


Station Type Date Time Source
KPTB Decoded METAR 2021/10/20 05:55 UTC NOAA

Petersburg, Dinwiddie County Airport, VA, United States (KPTB) 37-11N 077-31W
Oct 20, 2021 - 01:55 AM EDT / 2021.10.20 0555 UTC
Wind: from the WSW (240 degrees) at 5 MPH (4 KT):0
Visibility: 10 mile(s):0
Sky conditions: clear
Temperature: 47.8 F (8.8 C)
Dew Point: 43.5 F (6.4 C)
Relative Humidity: 84%
Pressure (altimeter): 30.16 in. Hg (1021 hPa)
ob: KPTB 200555Z AUTO 24004KT 10SM CLR 09/06 A3016 RMK AO2 T00880064 10105 20069 TSNO
cycle: 6

Station Type Date Time Source
KPTB TAF UTC NOAA

Error!

Example: see airport list